Aviation Digital Data Service (ADDS)

Output produced by METARs form (0711 UTC 24 March 2019)
found at http://www.aviationweather.gov/metar/data/
 
VTBD 240700Z 19006KT 130V250 9999 FEW025 36/24 Q1007 NOSIG
TAF VTBD 240500Z 2406/2512 19008KT 9999 FEW020 
     BECMG 2422/2424 12005KT 8000 
     BECMG 2502/2504 20008KT 9999
       
VTUO 240700Z 15008KT 100V210 7000 SCT030 31/23 Q1010 NOSIG
TAF VTUO 240500Z 2406/2506 12008KT 6000 FEW035 
     BECMG 2407/2409 7000 SCT035 
     BECMG 2421/2423 5000 BR NSC 
     BECMG 2501/2503 6000 NSW
       
VTCC 240700Z 14006KT 2000 HZ NSC 37/15 Q1009 NOSIG
TAF VTCC 240500Z 2406/2512 16005KT 2000 HZ NSC
       
VTCT 240700Z 09004KT 2000 HZ NSC 31/16 Q1008 NOSIG
TAF VTCT 240500Z 2406/2512 14005KT 7000 NSC 
     BECMG 2421/2423 3000 BR 
     BECMG 2501/2503 7000 NSW
       
VTSE 240700Z 13007KT 9999 SCT020 33/24 Q1008 NOSIG
TAF VTSE 240500Z 2406/2506 11010KT 9999 FEW020 
     BECMG 2413/2415 30003KT 
     BECMG 2420/2422 5000 BR 
     BECMG 2502/2504 9999 NSW 
     BECMG 2504/2506 12010KT
       
VTSS 240700Z VRB06KT 9999 FEW020 36/21 Q1007 NOSIG
TAF VTSS 240500Z 2406/2506 04010KT 9999 SCT020 
     PROB30 
     TEMPO 2408/2414 VRB10G20KT 5000 TSRA FEW016CB SCT018 BKN100 
     BECMG 2414/2416 00000KT 
     BECMG 2504/2506 04010KT
       
VTPH 240700Z 14014KT 7000 FEW030 33/25 Q1007 NOSIG
TAF VTPH 240500Z 2406/2506 15010KT 9999 FEW030 
     BECMG 2414/2416 00000KT 
     BECMG 2502/2504 15010KT
       
VTUK 240700Z VRB04KT 8000 SCT030 SCT100 35/22 Q1009 NOSIG
TAF VTUK 240500Z 2406/2506 12005KT 8000 SCT030 BKN100 
     TEMPO 2407/2412 VRB10G25KT 5000 TSRA FEW018CB BKN020 BKN080
       
VTSG 240700Z 23010KT 200V260 9999 SCT020 35/24 Q1008 NOSIG
TAF VTSG 240500Z 2406/2506 22010KT 9999 FEW020 
     PROB30 
     TEMPO 2408/2412 VRB10G20KT 5000 TSRA FEW018CB SCT020 BKN100 
     BECMG 2416/2418 VRB02KT 
     BECMG 2420/2422 5000 BR 
     BECMG 2501/2503 9999 NSW
       
VTCL 240700Z 27005KT 240V310 4000 NSC 37/14 Q1008 NOSIG
TAF VTCL 240500Z 2406/2506 23005KT 4000 HZ NSC 
     BECMG 2421/2423 3000 BR 
     BECMG 2501/2503 5000 HZ
       
VTUL 240700Z 10006KT 050V170 9000 BKN030 33/22 Q1009 NOSIG
TAF VTUL 240500Z 2406/2506 14005KT 8000 SCT030 BKN100 
     TEMPO 2407/2412 VRB10G25KT 5000 TSRA FEW018CB BKN020 BKN080 
     BECMG 2422/2424 5000 BR 
     BECMG 2501/2503 8000 NSW
       
VTCH 240700Z 22003KT 4000 HZ NSC 37/10 Q1007
TAF VTCH 240500Z 2406/2506 20005KT 3000 HZ NSC 
     BECMG 2421/2423 1500 BR 
     BECMG 2501/2503 3000 HZ
       
VTPM 240700Z 26011KT CAVOK 38/07 Q1008 NOSIG
TAF VTPM 240500Z 2406/2506 27005KT 6000 NSC 
     BECMG 2421/2423 3000 BR 
     BECMG 2501/2503 6000 NSW
       
VTUW 240700Z 11010KT 080V140 9999 BKN030 31/20 Q1010 NOSIG
TAF VTUW 240500Z 2406/2506 12006KT 9999 SCT030 BKN100 
     TEMPO 2407/2412 VRB10G25KT 5000 TSRA FEW018CB BKN020 BKN080
       
VTUQ 240700Z 11011KT 080V140 6000 -RA SCT030 BKN080 26/23 Q1010 NOSIG
TAF VTUQ 240500Z 2406/2506 12008KT 7000 SCT035 
     BECMG 2421/2423 5000 BR NSC 
     BECMG 2501/2503 6000 NSW
       
VTSF 240700Z 08010KT 040V120 9999 FEW018 33/25 Q1008 NOSIG
TAF VTSF 240500Z 2406/2506 08010KT 9999 SCT020 
     BECMG 2413/2415 VRB02KT 
     BECMG 2504/2506 08010KT
       
VTCN 240700Z 19006KT 130V290 6000 NSC 36/19 Q1006 NOSIG
TAF VTCN 240500Z 2406/2506 03005KT 5000 HZ NSC 
     BECMG 2421/2423 2000 BR 
     BECMG 2501/2503 5000 HZ
       
VTSC 240700Z 07010KT 040V100 9999 FEW022 31/26 Q1008 NOSIG
TAF VTSC 240500Z 2406/2506 08010KT 9999 FEW020 
     BECMG 2414/2416 20003KT 
     BECMG 2504/2506 07010KT
       
TAF VTSK 240500Z 2406/2506 09010KT 9999 FEW020 
     BECMG 2413/2415 16003KT 
     BECMG 2504/2506 06010KT
       
VTPB 240700Z VRB04KT 5000 HZ FEW030 38/17 Q1006 NOSIG
TAF VTPB 240500Z 2406/2506 04005KT 4000 HZ NSC 
     BECMG 2421/2423 3000 BR 
     BECMG 2501/2503 5000 HZ
       
VTPP 240700Z 24007KT 170V280 7000 NSC 35/22 Q1007 NOSIG
TAF VTPP 240500Z 2406/2506 22005KT 7000 NSC 
     BECMG 2421/2423 5000 BR 
     BECMG 2501/2503 7000 NSW
       
VTCP 240700Z 26006KT 2000 HZ FU NSC 38/18 Q1007 NOSIG
TAF VTCP 240500Z 2406/2506 22005KT 2000 HZ NSC 
     BECMG 2421/2423 1500 BR 
     BECMG 2501/2503 3000 HZ
       
VTSP 240700Z 27012KT 240V310 9999 FEW020 33/23 Q1010 NOSIG
TAF VTSP 240500Z 2406/2512 28012KT 9999 FEW020 
     BECMG 2414/2416 8000 
     BECMG 2422/2424 VRB04KT 
     BECMG 2504/2506 28010KT 9999
       
VTSR 240600Z 28008KT 250V310 8000 SCT025 33/25 Q1009 NOSIG
TAF VTSR 240500Z 2406/2506 28008KT 9999 FEW025 
     BECMG 2414/2416 00000KT 8000
       
VTUV 240700Z 14010KT 6000 SCT030 BKN100 32/21 Q1009 NOSIG
TAF VTUV 240500Z 2406/2506 10010KT 6000 SCT030 
     BECMG 2409/2411 7000 
     BECMG 2422/2424 5000 BR NSC 
     BECMG 2502/2504 6000 NSW
       
VTUI 240700Z 11010KT 080V150 9999 BKN040 32/22 Q1009 NOSIG
TAF VTUI 240500Z 2406/2506 12006KT 9999 SCT030 BKN080 
     TEMPO 2407/2412 VRB10G25KT 5000 TSRA FEW018CB BKN020 BKN080
       
VTSM 240700Z 16008KT 9999 VCSH FEW020TCU 32/26 Q1009 NOSIG
TAF VTSM 240500Z 2406/2506 14008KT 9999 FEW020
       
VTSH 240600Z 03008KT 9999 FEW020 32/25 Q1009 NOSIG
TAF VTSH 240500Z 2406/2506 04010KT 9999 FEW020 
     BECMG 2413/2415 18003KT 
     BECMG 2504/2506 05010KT
       
VTPO 240700Z 21003KT 4000 HZ NSC 36/23 Q1007 NOSIG
TAF VTPO 240500Z 2406/2506 12005KT 3000 HZ NSC 
     BECMG 2421/2423 1500 BR 
     BECMG 2501/2503 3000 HZ
       
VTSB 240700Z 29005KT 220V010 9000 FEW018TCU 37/23 Q1007
TAF VTSB 240500Z 2406/2506 04010KT 9000 FEW020 
     BECMG 2414/2416 VRB02KT 
     BECMG 2420/2422 5000 BR 
     BECMG 2502/2504 9999 NSW 
     BECMG 2504/2506 05010KT
       
TAF VTPT 240500Z 2406/2506 27005KT 6000 NSC 
     BECMG 2421/2423 5000 BR 
     BECMG 2501/2503 6000 NSW
       
VTST 240700Z 34004KT 9999 SCT023 35/21 Q1006 NOSIG
TAF VTST 240500Z 2406/2506 24008KT 9999 FEW020 
     TEMPO 2408/2412 VRB10G20KT 5000 TSRA FEW018CB SCT020 BKN100 
     BECMG 2414/2416 00000KT
       
VTBU 240700Z 18014KT 7000 FEW020TCU 31/24 Q1008 NOSIG
TAF VTBU 240500Z 2406/2506 17010KT 7000 FEW020 
     TEMPO 2406/2411 FEW020CB 
     BECMG 2411/2413 17006KT 5000 BR
       
VTUU 240700Z VRB02KT 3500 BR NSC 26/25 Q1010 BECMG 5000 BR
TAF VTUU 240500Z 2406/2506 08007KT 4000 BR SCT030 
     BECMG 2409/2411 7000 NSW 
     BECMG 2422/2424 5000 BR NSC 
     BECMG 2501/2503 6000 NSW
       
VTUD 240700Z 10006KT 070V130 8000 FEW035 33/21 Q1009 NOSIG
TAF VTUD 240500Z 2406/2506 11008KT 9999 SCT030 SCT100 
     TEMPO 2407/2412 VRB10G25KT 5000 TSRA FEW018CB BKN020 BKN080